Time;durP1;ratioP1;P1;durP2;ratioP2;P2;SDS_P1;SDS_P2;PMS_P1;PMS_P2;Temp;Humidity;BMP_temperature;BMP_pressure;BME280_temperature;BME280_humidity;BME280_pressure;Samples;Min_cycle;Max_cycle;Signal;HPM_P1;HPM_P2
2021/09/18 00:01:32;;;;;;;;;;;;;;;;;;5109740;28;19919;-66
2021/09/18 00:03:58;;;;;;;;;;;;;;;;;;5111316;28;19947;-66
2021/09/18 00:06:24;;;;;;;;;;;;;;;;;;5111292;28;19931;-66
2021/09/18 00:08:50;;;;;;;;;;;;;;;;;;5111093;28;19912;-66
2021/09/18 00:11:15;;;;;;;;;;;;;;;;;;5111300;28;19915;-67
2021/09/18 00:13:41;;;;;;;;;;;;;;;;;;5111673;28;19908;-66
2021/09/18 00:17:17;;;;;;;;;;;;;;;;;;5091600;27;20299;-66
2021/09/18 00:19:42;;;;;;;;;;;;;;;;;;5091453;28;20007;-68
2021/09/18 00:22:10;;;;;;;;;;;;;;;;;;5089743;28;19995;-68
2021/09/18 00:26:55;;;;;;;;;;;;;;;;;;5111956;27;19916;-68
2021/09/18 00:30:20;;;;;;;;;;;;;;;;;;5152640;27;20298;-68
2021/09/18 00:32:46;;;;;;;;;;;;;;;;;;5153107;27;20009;-68
2021/09/18 00:35:12;;;;;;;;;;;;;;;;;;5153009;27;20002;-68
2021/09/18 00:37:52;;;;;;;;;;;;;;;;;;5091668;27;19922;-66
2021/09/18 00:42:06;;;;;;;;;;;;;;;;;;5111935;27;19922;-66
2021/09/18 00:44:32;;;;;;;;;;;;;;;;;;5111325;28;19912;-66
2021/09/18 00:46:58;;;;;;;;;;;;;;;;;;5110423;28;19977;-66
2021/09/18 00:49:24;;;;;;;;;;;;;;;;;;5111912;28;19908;-66
2021/09/18 00:53:50;;;;;;;;;;;;;;;;;;5112059;27;19922;-67
2021/09/18 00:56:17;;;;;;;;;;;;;;;;;;5111756;28;19995;-67
2021/09/18 00:58:43;;;;;;;;;;;;;;;;;;5111363;28;19908;-68
2021/09/18 01:03:34;;;;;;;;;;;;;;;;;;5111836;27;19916;-66
2021/09/18 01:06:00;;;;;;;;;;;;;;;;;;5110081;28;20344;-66
2021/09/18 01:08:26;;;;;;;;;;;;;;;;;;5111955;28;20002;-66
2021/09/18 01:10:52;;;;;;;;;;;;;;;;;;5111598;28;19998;-66
2021/09/18 01:13:20;;;;;;;;;;;;;;;;;;5111617;28;19942;-66
2021/09/18 01:17:55;;;;;;;;;;;;;;;;;;5091359;27;19922;-66
2021/09/18 01:20:21;;;;;;;;;;;;;;;;;;5091382;28;19958;-66
2021/09/18 01:24:59;;;;;;;;;;;;;;;;;;5112135;27;20271;-66
2021/09/18 01:27:25;;;;;;;;;;;;;;;;;;5111890;28;20002;-66
2021/09/18 01:29:51;;;;;;;;;;;;;;;;;;5111745;28;20007;-66
2021/09/18 01:32:18;;;;;;;;;;;;;;;;;;5111615;28;20379;-67
2021/09/18 01:34:44;;;;;;;;;;;;;;;;;;5111613;28;19915;-66
2021/09/18 01:37:50;;;;;;;;;;;;;;;;;;5112583;27;19916;-66
2021/09/18 01:40:16;;;;;;;;;;;;;;;;;;5111495;28;19912;-67
2021/09/18 01:43:11;;;;;;;;;;;;;;;;;;5112354;27;20016;-66
2021/09/18 01:45:38;;;;;;;;;;;;;;;;;;5110479;28;19912;-66
2021/09/18 01:48:04;;;;;;;;;;;;;;;;;;5111377;28;19908;-67
2021/09/18 01:50:30;;;;;;;;;;;;;;;;;;5111851;28;20402;-67
2021/09/18 01:54:37;;;;;;;;;;;;;;;;;;5091122;28;19916;-66
2021/09/18 01:57:03;;;;;;;;;;;;;;;;;;5091364;28;19912;-66
2021/09/18 02:03:05;;;;;;;;;;;;;;;;;;5112019;27;19916;-66
2021/09/18 02:06:29;;;;;;;;;;;;;;;;;;5111920;27;19916;-66
2021/09/18 02:08:55;;;;;;;;;;;;;;;;;;5111374;28;19987;-66
2021/09/18 02:11:21;;;;;;;;;;;;;;;;;;5111678;28;19908;-66
2021/09/18 02:13:47;;;;;;;;;;;;;;;;;;5110406;28;19908;-66
2021/09/18 02:16:13;;;;;;;;;;;;;;;;;;5111201;28;20432;-66
2021/09/18 02:18:39;;;;;;;;;;;;;;;;;;5111599;28;19919;-66
2021/09/18 02:24:15;;;;;;;;;;;;;;;;;;5152989;27;19917;-66
2021/09/18 02:26:41;;;;;;;;;;;;;;;;;;5152941;27;20446;-66
2021/09/18 02:29:07;;;;;;;;;;;;;;;;;;5152656;27;19997;-66
2021/09/18 02:33:56;;;;;;;;;;;;;;;;;;5112290;27;19912;-66
2021/09/18 02:36:22;;;;;;;;;;;;;;;;;;5111364;28;19912;-66
2021/09/18 02:38:48;;;;;;;;;;;;;;;;;;5110412;28;20007;-66
2021/09/18 02:44:02;;;;;;;;;;;;;;;;;;5091177;27;19923;-66
2021/09/18 02:46:28;;;;;;;;;;;;;;;;;;5091394;28;20010;-66
2021/09/18 02:48:54;;;;;;;;;;;;;;;;;;5090032;28;19999;-66
2021/09/18 02:52:07;;;;;;;;;;;;;;;;;;5153323;27;20030;-66
2021/09/18 02:57:03;;;;;;;;;;;;;;;;;;5111631;27;20392;-66
2021/09/18 02:59:29;;;;;;;;;;;;;;;;;;5110551;28;20015;-66
2021/09/18 03:01:56;;;;;;;;;;;;;;;;;;5110442;28;19998;-66
2021/09/18 03:06:26;;;;;;;;;;;;;;;;;;5111972;27;19922;-66
2021/09/18 03:09:16;;;;;;;;;;;;;;;;;;5112142;27;19922;-66
2021/09/18 03:11:42;;;;;;;;;;;;;;;;;;5110093;28;19912;-66
2021/09/18 03:14:08;;;;;;;;;;;;;;;;;;5110391;28;19908;-66
2021/09/18 03:20:31;;;;;;;;;;;;;;;;;;5112358;27;20368;-66
2021/09/18 03:22:57;;;;;;;;;;;;;;;;;;5111743;28;19918;-66
2021/09/18 03:25:23;;;;;;;;;;;;;;;;;;5110199;28;19995;-66
2021/09/18 03:27:49;;;;;;;;;;;;;;;;;;5110463;28;19908;-66
2021/09/18 03:32:42;;;;;;;;;;;;;;;;;;5152785;27;20002;-66
2021/09/18 03:35:08;;;;;;;;;;;;;;;;;;5152943;27;20032;-66
2021/09/18 03:37:59;;;;;;;;;;;;;;;;;;5112590;27;19916;-66
2021/09/18 03:40:25;;;;;;;;;;;;;;;;;;5111380;28;19912;-66
2021/09/18 03:42:51;;;;;;;;;;;;;;;;;;5111682;28;19908;-66
2021/09/18 03:45:17;;;;;;;;;;;;;;;;;;5111729;28;20002;-66
2021/09/18 03:47:43;;;;;;;;;;;;;;;;;;5110259;28;19946;-66
2021/09/18 03:50:09;;;;;;;;;;;;;;;;;;5111572;28;19916;-66
2021/09/18 03:52:35;;;;;;;;;;;;;;;;;;5109858;28;19912;-66
2021/09/18 03:55:01;;;;;;;;;;;;;;;;;;5111478;28;19931;-66
2021/09/18 04:05:05;;;;;;;;;;;;;;;;;;5112520;27;20353;-68
2021/09/18 04:08:58;;;;;;;;;;;;;;;;;;5132269;27;20406;-67
2021/09/18 04:11:24;;;;;;;;;;;;;;;;;;5132332;28;19995;-67
2021/09/18 04:13:51;;;;;;;;;;;;;;;;;;5130549;28;20349;-68
2021/09/18 04:19:57;;;;;;;;;;;;;;;;;;5112506;27;19912;-67
2021/09/18 04:22:23;;;;;;;;;;;;;;;;;;5111388;28;20000;-69
2021/09/18 04:24:49;;;;;;;;;;;;;;;;;;5110488;28;19944;-70
2021/09/18 04:27:15;;;;;;;;;;;;;;;;;;5110529;28;20280;-68
2021/09/18 04:29:41;;;;;;;;;;;;;;;;;;5111245;28;19908;-70
2021/09/18 04:32:16;;;;;;;;;;;;;;;;;;5092065;28;19920;-69
2021/09/18 04:34:42;;;;;;;;;;;;;;;;;;5091054;28;20003;-69
2021/09/18 04:38:21;;;;;;;;;;;;;;;;;;5112461;27;19919;-68
2021/09/18 04:42:54;;;;;;;;;;;;;;;;;;5091399;27;19917;-68
2021/09/18 04:45:20;;;;;;;;;;;;;;;;;;5091393;28;19995;-67
2021/09/18 04:49:30;;;;;;;;;;;;;;;;;;5112013;27;19923;-66
2021/09/18 04:52:28;;;;;;;;;;;;;;;;;;5092341;28;19923;-66
2021/09/18 04:54:55;;;;;;;;;;;;;;;;;;5091485;28;20003;-66
2021/09/18 04:57:21;;;;;;;;;;;;;;;;;;5090847;28;19962;-67
2021/09/18 04:59:47;;;;;;;;;;;;;;;;;;5091692;28;20475;-67
2021/09/18 05:02:13;;;;;;;;;;;;;;;;;;5091448;28;19908;-67
2021/09/18 05:06:15;;;;;;;;;;;;;;;;;;5091803;27;20312;-66
2021/09/18 05:11:50;;;;;;;;;;;;;;;;;;5152527;27;19918;-66
2021/09/18 05:14:17;;;;;;;;;;;;;;;;;;5134402;27;20320;-66
2021/09/18 05:17:15;;;;;;;;;;;;;;;;;;5111806;27;19923;-66
2021/09/18 05:21:40;;;;;;;;;;;;;;;;;;5111996;27;19916;-66
2021/09/18 05:24:06;;;;;;;;;;;;;;;;;;5111321;28;19920;-67
2021/09/18 05:28:32;;;;;;;;;;;;;;;;;;5112635;27;19916;-67
2021/09/18 05:30:58;;;;;;;;;;;;;;;;;;5111387;28;20456;-68
2021/09/18 05:33:24;;;;;;;;;;;;;;;;;;5111943;28;19914;-68
2021/09/18 05:35:50;;;;;;;;;;;;;;;;;;5111672;28;20372;-67
2021/09/18 05:38:16;;;;;;;;;;;;;;;;;;5111189;28;19916;-66
2021/09/18 05:40:42;;;;;;;;;;;;;;;;;;5111616;28;19912;-67
2021/09/18 05:44:32;;;;;;;;;;;;;;;;;;5112526;27;19916;-69
2021/09/18 05:46:58;;;;;;;;;;;;;;;;;;5111458;28;20014;-68
2021/09/18 05:49:24;;;;;;;;;;;;;;;;;;5111771;28;20368;-69
2021/09/18 05:52:16;;;;;;;;;;;;;;;;;;5111513;27;20280;-69
2021/09/18 05:54:42;;;;;;;;;;;;;;;;;;5111878;28;20372;-68
2021/09/18 05:58:40;;;;;;;;;;;;;;;;;;5072025;28;20369;-69
2021/09/18 06:01:06;;;;;;;;;;;;;;;;;;5070761;28;19957;-68
2021/09/18 06:03:32;;;;;;;;;;;;;;;;;;5071118;28;19915;-68
2021/09/18 06:05:58;;;;;;;;;;;;;;;;;;5069864;28;20361;-68
2021/09/18 06:08:24;;;;;;;;;;;;;;;;;;5070641;28;19909;-68
2021/09/18 06:10:50;;;;;;;;;;;;;;;;;;5070035;28;20269;-68
2021/09/18 06:13:16;;;;;;;;;;;;;;;;;;5070664;28;19915;-69
2021/09/18 06:15:42;;;;;;;;;;;;;;;;;;5070884;28;19931;-68
2021/09/18 06:19:18;;;;;;;;;;;;;;;;;;5153013;27;19998;-67
2021/09/18 06:21:45;;;;;;;;;;;;;;;;;;5152502;27;19938;-67
2021/09/18 06:24:11;;;;;;;;;;;;;;;;;;5134376;27;19907;-67
2021/09/18 06:31:09;;;;;;;;;;;;;;;;;;5091599;27;19923;-68
2021/09/18 06:33:34;;;;;;;;;;;;;;;;;;5091437;28;19999;-67
2021/09/18 06:36:00;;;;;;;;;;;;;;;;;;5089646;28;20424;-67
2021/09/18 06:38:26;;;;;;;;;;;;;;;;;;5091283;28;19909;-67
2021/09/18 06:40:52;;;;;;;;;;;;;;;;;;5091212;28;19930;-67
2021/09/18 06:44:32;;;;;;;;;;;;;;;;;;5111905;27;19916;-67
2021/09/18 06:46:58;;;;;;;;;;;;;;;;;;5111817;28;19943;-67
2021/09/18 06:49:24;;;;;;;;;;;;;;;;;;5111347;28;19911;-68
2021/09/18 06:51:50;;;;;;;;;;;;;;;;;;5111784;28;19917;-67
2021/09/18 06:55:49;;;;;;;;;;;;;;;;;;5112012;27;19912;-68
2021/09/18 06:58:15;;;;;;;;;;;;;;;;;;5110449;28;20000;-67
2021/09/18 07:00:41;;;;;;;;;;;;;;;;;;5111658;28;19951;-67
2021/09/18 07:03:07;;;;;;;;;;;;;;;;;;5111590;28;20394;-67
2021/09/18 07:05:33;;;;;;;;;;;;;;;;;;5111820;28;19958;-67
2021/09/18 07:07:59;;;;;;;;;;;;;;;;;;5111821;28;19909;-67
2021/09/18 07:12:39;;;;;;;;;;;;;;;;;;5051493;28;19921;-67
2021/09/18 07:17:36;;;;;;;;;;;;;;;;;;5091428;27;19912;-67
2021/09/18 07:20:41;;;;;;;;;;;;;;;;;;5112511;27;20268;-68
2021/09/18 07:25:27;;;;;;;;;;;;;;;;;;5091019;27;19913;-67
2021/09/18 07:27:53;;;;;;;;;;;;;;;;;;5091387;28;20437;-68
2021/09/18 07:31:48;;;;;;;;;;;;;;;;;;5091189;27;19916;-68
2021/09/18 07:34:14;;;;;;;;;;;;;;;;;;5090141;28;20460;-68
2021/09/18 07:38:34;;;;;;;;;;;;;;;;;;5090988;27;19913;-67
2021/09/18 07:41:00;;;;;;;;;;;;;;;;;;5091616;28;20365;-67
2021/09/18 07:43:26;;;;;;;;;;;;;;;;;;5091221;28;19916;-67
2021/09/18 07:45:52;;;;;;;;;;;;;;;;;;5090856;28;19908;-67
2021/09/18 07:48:18;;;;;;;;;;;;;;;;;;5091097;28;19908;-67
2021/09/18 07:50:44;;;;;;;;;;;;;;;;;;5091401;28;19962;-67
2021/09/18 07:53:11;;;;;;;;;;;;;;;;;;5090732;28;20319;-67
2021/09/18 07:55:37;;;;;;;;;;;;;;;;;;5090905;28;19908;-68
2021/09/18 07:58:03;;;;;;;;;;;;;;;;;;5089504;28;20019;-68
2021/09/18 08:00:29;;;;;;;;;;;;;;;;;;5090600;28;19915;-68
2021/09/18 08:02:56;;;;;;;;;;;;;;;;;;5090919;28;19913;-68
2021/09/18 08:05:22;;;;;;;;;;;;;;;;;;5091492;28;20042;-68
2021/09/18 08:10:17;;;;;;;;;;;;;;;;;;5111853;27;19916;-68
2021/09/18 08:12:48;;;;;;;;;;;;;;;;;;5111281;28;20444;-68
2021/09/18 08:15:14;;;;;;;;;;;;;;;;;;5111693;28;19908;-68
2021/09/18 08:19:02;;;;;;;;;;;;;;;;;;5111940;27;19916;-67
2021/09/18 08:21:49;;;;;;;;;;;;;;;;;;5091144;28;19922;-68
2021/09/18 08:24:17;;;;;;;;;;;;;;;;;;5091368;28;19912;-68
2021/09/18 08:31:43;;;;;;;;;;;;;;;;;;5091394;27;19919;-68
2021/09/18 08:34:09;;;;;;;;;;;;;;;;;;5091146;28;19912;-67
2021/09/18 08:36:35;;;;;;;;;;;;;;;;;;5091284;28;19908;-67
2021/09/18 08:39:50;;;;;;;;;;;;;;;;;;5091600;28;19918;-66
2021/09/18 08:44:08;;;;;;;;;;;;;;;;;;5112271;27;19918;-68
2021/09/18 08:46:34;;;;;;;;;;;;;;;;;;5111762;28;20343;-68
2021/09/18 08:50:37;;;;;;;;;;;;;;;;;;5153351;27;20021;-67
2021/09/18 08:53:03;;;;;;;;;;;;;;;;;;5152930;27;19951;-67
2021/09/18 08:55:29;;;;;;;;;;;;;;;;;;5152673;27;19947;-68
2021/09/18 08:57:55;;;;;;;;;;;;;;;;;;5152814;27;19912;-68
2021/09/18 09:00:21;;;;;;;;;;;;;;;;;;5152971;27;19907;-68
2021/09/18 09:02:47;;;;;;;;;;;;;;;;;;5152343;27;20386;-68
2021/09/18 09:05:14;;;;;;;;;;;;;;;;;;5152654;27;19907;-68
2021/09/18 09:07:41;;;;;;;;;;;;;;;;;;5152734;27;19908;-68
2021/09/18 09:10:07;;;;;;;;;;;;;;;;;;5152218;27;19922;-68
2021/09/18 09:12:32;;;;;;;;;;;;;;;;;;5133925;27;19993;-68
2021/09/18 09:14:58;;;;;;;;;;;;;;;;;;5152373;27;19914;-68
2021/09/18 09:17:25;;;;;;;;;;;;;;;;;;5152089;27;20383;-68
2021/09/18 09:22:12;;;;;;;;;;;;;;;;;;5112006;27;20288;-68
2021/09/18 09:24:38;;;;;;;;;;;;;;;;;;5111360;28;19918;-68
2021/09/18 09:27:04;;;;;;;;;;;;;;;;;;5111615;28;19918;-68
2021/09/18 09:29:30;;;;;;;;;;;;;;;;;;5112173;28;19912;-68
2021/09/18 09:31:56;;;;;;;;;;;;;;;;;;5109686;28;19908;-68
2021/09/18 09:34:22;;;;;;;;;;;;;;;;;;5111468;28;19954;-68
2021/09/18 09:38:57;;;;;;;;;;;;;;;;;;5111504;27;19912;-68
2021/09/18 09:41:23;;;;;;;;;;;;;;;;;;5111621;28;19999;-68
2021/09/18 09:43:50;;;;;;;;;;;;;;;;;;5111652;28;20339;-68
2021/09/18 09:46:16;;;;;;;;;;;;;;;;;;5111173;28;19916;-68
2021/09/18 09:48:42;;;;;;;;;;;;;;;;;;5111441;28;20006;-68
2021/09/18 09:51:09;;;;;;;;;;;;;;;;;;5109758;28;19912;-68
2021/09/18 09:53:35;;;;;;;;;;;;;;;;;;5111955;28;19914;-68
2021/09/18 09:56:06;;;;;;;;;;;;;;;;;;5111426;28;19908;-68
2021/09/18 09:59:34;;;;;;;;;;;;;;;;;;5111611;27;19923;-67
2021/09/18 10:02:00;;;;;;;;;;;;;;;;;;5110364;28;19912;-67
2021/09/18 10:07:24;;;;;;;;;;;;;;;;;;5091112;27;19913;-68
2021/09/18 10:13:40;;;;;;;;;;;;;;;;;;5091060;27;20272;-68
2021/09/18 10:16:06;;;;;;;;;;;;;;;;;;5091275;28;19912;-68
2021/09/18 10:18:34;;;;;;;;;;;;;;;;;;5091327;28;19909;-68
2021/09/18 10:23:26;;;;;;;;;;;;;;;;;;5091746;28;19999;-68
2021/09/18 10:25:53;;;;;;;;;;;;;;;;;;5091082;28;19916;-68
2021/09/18 10:30:10;;;;;;;;;;;;;;;;;;5153304;27;20002;-67
2021/09/18 10:32:36;;;;;;;;;;;;;;;;;;5152778;27;19973;-67
2021/09/18 10:35:16;;;;;;;;;;;;;;;;;;5111317;27;19916;-67
2021/09/18 10:41:50;;;;;;;;;;;;;;;;;;5111642;27;19920;-68
2021/09/18 10:44:16;;;;;;;;;;;;;;;;;;5110353;28;19919;-67
2021/09/18 10:46:42;;;;;;;;;;;;;;;;;;5111683;28;20288;-67
2021/09/18 10:51:06;;;;;;;;;;;;;;;;;;5092128;27;19919;-67
2021/09/18 10:53:32;;;;;;;;;;;;;;;;;;5091360;28;19919;-67
2021/09/18 10:55:58;;;;;;;;;;;;;;;;;;5090879;28;19908;-67
2021/09/18 10:58:24;;;;;;;;;;;;;;;;;;5091505;28;19974;-67
2021/09/18 11:03:16;;;;;;;;;;;;;;;;;;5091059;27;19912;-67
2021/09/18 11:05:42;;;;;;;;;;;;;;;;;;5091403;28;20002;-67
2021/09/18 11:08:08;;;;;;;;;;;;;;;;;;5091272;28;19954;-67
2021/09/18 11:10:34;;;;;;;;;;;;;;;;;;5090958;28;19909;-67
2021/09/18 11:12:59;;;;;;;;;;;;;;;;;;5091197;28;19908;-69
2021/09/18 11:15:25;;;;;;;;;;;;;;;;;;5091044;28;19915;-66
2021/09/18 11:22:05;;;;;;;;;;;;;;;;;;5091773;27;20365;-67
2021/09/18 11:25:19;;;;;;;;;;;;;;;;;;5112033;27;19916;-66
2021/09/18 11:27:45;;;;;;;;;;;;;;;;;;5111730;28;19919;-69
2021/09/18 11:30:11;;;;;;;;;;;;;;;;;;5111760;28;19996;-69
2021/09/18 11:33:12;;;;;;;;;;;;;;;;;;5092123;27;19917;-67
2021/09/18 11:35:38;;;;;;;;;;;;;;;;;;5091310;28;19913;-67
2021/09/18 11:38:05;;;;;;;;;;;;;;;;;;5090939;28;19961;-67
2021/09/18 11:40:30;;;;;;;;;;;;;;;;;;5091262;28;19954;-68
2021/09/18 11:42:57;;;;;;;;;;;;;;;;;;5091167;28;20312;-68
2021/09/18 11:45:23;;;;;;;;;;;;;;;;;;5090763;28;19962;-68
2021/09/18 11:47:49;;;;;;;;;;;;;;;;;;5091359;28;19913;-68
2021/09/18 11:50:15;;;;;;;;;;;;;;;;;;5090985;28;20400;-68
2021/09/18 11:55:09;;;;;;;;;;;;;;;;;;5112061;27;19916;-67
2021/09/18 11:57:35;;;;;;;;;;;;;;;;;;5111602;28;20365;-67
2021/09/18 12:00:01;;;;;;;;;;;;;;;;;;5109948;28;20349;-67
2021/09/18 12:02:27;;;;;;;;;;;;;;;;;;5110334;28;19943;-68
2021/09/18 12:04:53;;;;;;;;;;;;;;;;;;5111143;28;19908;-68
2021/09/18 12:09:48;;;;;;;;;;;;;;;;;;5112354;27;19922;-67
2021/09/18 12:12:14;;;;;;;;;;;;;;;;;;5111264;28;20325;-67
2021/09/18 12:14:40;;;;;;;;;;;;;;;;;;5112300;28;19948;-68
2021/09/18 12:17:06;;;;;;;;;;;;;;;;;;5111648;28;19977;-68
2021/09/18 12:19:32;;;;;;;;;;;;;;;;;;5111204;28;19908;-68
2021/09/18 12:21:58;;;;;;;;;;;;;;;;;;5110264;28;20444;-67
2021/09/18 12:24:24;;;;;;;;;;;;;;;;;;5111760;28;19961;-67
2021/09/18 12:26:50;;;;;;;;;;;;;;;;;;5111033;28;19908;-68
2021/09/18 12:29:15;;;;;;;;;;;;;;;;;;5111429;28;19923;-67
2021/09/18 12:31:42;;;;;;;;;;;;;;;;;;5111367;28;20288;-67
2021/09/18 12:34:08;;;;;;;;;;;;;;;;;;5110930;28;19919;-67
2021/09/18 12:36:34;;;;;;;;;;;;;;;;;;5111759;28;19915;-67
2021/09/18 12:39:00;;;;;;;;;;;;;;;;;;5109989;28;19908;-67
2021/09/18 12:41:27;;;;;;;;;;;;;;;;;;5110688;28;19995;-67
2021/09/18 12:43:53;;;;;;;;;;;;;;;;;;5110990;28;19908;-68
2021/09/18 12:46:19;;;;;;;;;;;;;;;;;;5111095;28;19908;-68
2021/09/18 12:48:45;;;;;;;;;;;;;;;;;;5109321;28;19923;-68
2021/09/18 12:51:11;;;;;;;;;;;;;;;;;;5111183;28;19961;-68
2021/09/18 12:53:37;;;;;;;;;;;;;;;;;;5110964;28;19959;-68
2021/09/18 12:56:03;;;;;;;;;;;;;;;;;;5110615;28;20314;-68
2021/09/18 12:58:30;;;;;;;2.80;1.42;;;;;;;;;;5109459;28;20375;-67
2021/09/18 13:01:06;;;;;;;2.53;1.58;;;;;;;;;;5109961;28;20028;-67
2021/09/18 13:03:32;;;;;;;6.13;1.50;;;;;;;;;;5110402;28;20081;-66
2021/09/18 13:06:02;;;;;;;4.53;1.65;;;;;;;;;;5110156;28;20142;-68
2021/09/18 13:08:48;;;;;;;5.75;1.88;;;;;;;;;;5109373;28;20055;-68
2021/09/18 13:11:22;;;;;;;3.65;1.80;;;;;;;;;;5109966;28;20016;-68
2021/09/18 13:13:49;;;;;;;3.35;1.65;;;;;;;;;;5110247;28;20032;-67
2021/09/18 13:16:15;;;;;;;7.93;1.60;;;;;;;;;;5109770;28;20020;-67
2021/09/18 13:18:42;;;;;;;3.58;1.60;;;;;;;;;;5110328;28;20077;-67
2021/09/18 13:21:08;;;;;;;4.78;1.80;;;;;;;;;;5096425;28;20036;-68
2021/09/18 13:23:35;;;;;;;6.80;2.90;;;;;;;;;;5094751;28;20028;-67
2021/09/18 13:26:02;;;;;;;3.10;1.60;;;;;;;;;;5096333;28;20016;-67
2021/09/18 13:28:28;;;;;;;4.18;2.05;;;;;;;;;;5096364;28;20438;-68
2021/09/18 13:30:58;;;;;;;3.83;1.80;;;;;;;;;;5095913;28;20487;-68
2021/09/18 13:33:25;;;;;;;4.18;1.65;;;;;;;;;;5096240;28;20028;-67
2021/09/18 13:35:51;;;;;;;5.32;2.38;;;;;;;;;;5096200;28;20055;-68
2021/09/18 13:38:17;;;;;;;3.40;1.58;;;;;;;;;;5095692;28;20066;-68
2021/09/18 13:40:44;;;;;;;1.67;1.30;;;;;;;;;;5096032;28;20104;-67
2021/09/18 13:43:10;;;;;;;3.15;1.70;;;;;;;;;;5095549;28;20028;-68
2021/09/18 13:45:36;;;;;;;5.78;2.03;;;;;;;;;;5094559;28;20031;-67
2021/09/18 13:48:02;;;;;;;5.35;1.83;;;;;;;;;;5095846;28;20027;-66
2021/09/18 13:50:28;;;;;;;6.78;2.92;;;;;;;;;;5094186;28;20039;-66
2021/09/18 13:52:54;;;;;;;6.80;1.98;;;;;;;;;;5094471;28;20031;-67
2021/09/18 13:55:21;;;;;;;3.65;1.50;;;;;;;;;;5095984;28;20035;-68
2021/09/18 13:57:47;;;;;;;5.32;1.70;;;;;;;;;;5095242;28;20484;-68
2021/09/18 14:00:13;;;;;;;4.97;2.03;;;;;;;;;;5095694;28;20020;-68
2021/09/18 14:02:40;;;;;;;4.07;1.98;;;;;;;;;;5095546;28;20051;-68
2021/09/18 14:05:06;;;;;;;4.47;1.63;;;;;;;;;;5093793;28;20081;-67
2021/09/18 14:07:32;;;;;;;6.05;2.00;;;;;;;;;;5093499;28;20461;-67
2021/09/18 14:09:59;;;;;;;2.53;1.48;;;;;;;;;;5095145;28;20119;-67
2021/09/18 14:12:25;;;;;;;6.72;2.35;;;;;;;;;;5093979;28;20032;-68
2021/09/18 14:14:51;;;;;;;5.22;2.17;;;;;;;;;;5095336;28;20024;-68
2021/09/18 14:17:17;;;;;;;8.00;2.80;;;;;;;;;;5095316;28;20024;-68
2021/09/18 14:19:43;;;;;;;7.72;2.80;;;;;;;;;;5094890;28;20025;-68
2021/09/18 14:22:10;;;;;;;7.70;2.92;;;;;;;;;;5095426;28;20030;-68
2021/09/18 14:24:36;;;;;;;5.53;3.10;;;;;;;;;;5095135;28;20086;-68
2021/09/18 14:27:02;;;;;;;10.43;7.15;;;;;;;;;;5094813;28;20059;-68
2021/09/18 14:29:29;;;;;;;12.68;6.38;;;;;;;;;;5095082;28;20036;-68
2021/09/18 14:31:55;;;;;;;8.05;2.80;;;;;;;;;;5093960;28;20503;-68
2021/09/18 14:34:21;;;;;;;4.47;2.05;;;;;;;;;;5094667;28;20076;-69
2021/09/18 14:36:48;;;;;;;4.93;1.90;;;;;;;;;;5094966;28;20047;-69
2021/09/18 14:39:14;;;;;;;5.18;2.17;;;;;;;;;;5093849;28;20380;-68
2021/09/18 14:41:42;;;;;;;3.17;1.73;;;;;;;;;;5094412;28;20020;-69
2021/09/18 14:44:08;;;;;;;3.05;1.58;;;;;;;;;;5095015;28;20488;-68
2021/09/18 14:46:35;;;;;;;3.67;2.00;;;;;;;;;;5094244;28;20028;-69
2021/09/18 14:49:01;;;;;;;3.55;2.17;;;;;;;;;;5093314;28;20123;-70
2021/09/18 14:51:27;;;;;;;5.35;2.50;;;;;;;;;;5094814;28;20024;-67
2021/09/18 14:53:54;;;;;;;2.63;1.40;;;;;;;;;;5094154;28;20107;-67
2021/09/18 14:56:20;;;;;;;4.78;1.80;;;;;;;;;;5094540;28;20069;-67
2021/09/18 14:58:46;;;;;;;3.70;1.77;;;;;;;;;;5094376;28;20402;-68
2021/09/18 15:01:14;;;;;;;3.42;1.65;;;;;;;;;;5094317;28;20028;-67
2021/09/18 15:03:40;;;;;;;5.65;1.40;;;;;;;;;;5094536;28;20381;-67
2021/09/18 15:06:06;;;;;;;6.03;2.75;;;;;;;;;;5094728;28;20438;-67
2021/09/18 15:08:33;;;;;;;5.13;2.05;;;;;;;;;;5093693;28;20048;-67
2021/09/18 15:10:59;;;;;;;5.72;2.60;;;;;;;;;;5094228;28;20095;-67
2021/09/18 15:13:25;;;;;;;9.02;2.47;;;;;;;;;;5094424;28;20024;-68
2021/09/18 15:15:51;;;;;;;5.68;2.17;;;;;;;;;;5092449;28;20020;-67
2021/09/18 15:18:17;;;;;;;10.68;2.50;;;;;;;;;;5094087;28;20077;-67
2021/09/18 15:20:44;;;;;;;4.53;2.05;;;;;;;;;;5094168;28;20028;-68
2021/09/18 15:23:10;;;;;;;2.63;1.60;;;;;;;;;;5093696;28;20493;-69
2021/09/18 15:25:38;;;;;;;4.43;2.10;;;;;;;;;;5092783;28;20404;-69
2021/09/18 15:28:05;;;;;;;8.75;3.28;;;;;;;;;;5093889;28;20020;-68
2021/09/18 15:30:31;;;;;;;5.43;2.60;;;;;;;;;;5093579;28;20111;-69
2021/09/18 15:32:57;;;;;;;5.60;2.40;;;;;;;;;;5093950;28;20441;-68
2021/09/18 15:35:23;;;;;;;3.35;2.35;;;;;;;;;;5094009;28;20047;-68
2021/09/18 15:37:50;;;;;;;3.92;2.10;;;;;;;;;;5093541;28;20388;-70
2021/09/18 15:40:16;;;;;;;3.55;2.00;;;;;;;;;;5093795;28;20020;-69
2021/09/18 15:42:42;;;;;;;5.90;2.90;;;;;;;;;;5093742;28;20546;-68
2021/09/18 15:45:09;;;;;;;3.15;1.80;;;;;;;;;;5093329;28;20032;-67
2021/09/18 15:47:38;;;;;;;2.97;1.75;;;;;;;;;;5093811;28;20385;-68
2021/09/18 15:50:05;;;;;;;5.78;2.72;;;;;;;;;;5093183;28;20028;-66
2021/09/18 15:52:32;;;;;;;17.48;9.50;;;;;;;;;;5093922;28;20028;-66
2021/09/18 15:54:58;;;;;;;12.32;7.15;;;;;;;;;;5093643;28;20050;-68
2021/09/18 15:58:53;;;;;;;6.18;3.42;;;;;;;;;;5110907;27;20903;-67
2021/09/18 16:01:19;;;;;;;5.55;2.97;;;;;;;;;;5111178;28;20099;-67
2021/09/18 16:03:47;;;;;;;4.45;2.78;;;;;;;;;;5111182;28;20024;-67
2021/09/18 16:06:13;;;;;;;10.73;3.55;;;;;;;;;;5110726;28;20492;-67
2021/09/18 16:08:39;;;;;;;7.15;3.63;;;;;;;;;;5109828;28;20392;-67
2021/09/18 16:11:05;;;;;;;9.35;4.30;;;;;;;;;;5110700;28;20103;-67
2021/09/18 16:13:32;;;;;;;6.28;2.75;;;;;;;;;;5111019;28;20027;-67
2021/09/18 16:15:58;;;;;;;4.13;1.80;;;;;;;;;;5110957;28;20016;-68
2021/09/18 16:18:24;;;;;;;4.00;2.30;;;;;;;;;;5110461;28;20047;-67
2021/09/18 16:20:50;;;;;;;5.45;2.75;;;;;;;;;;5111012;28;20024;-68
2021/09/18 16:23:17;;;;;;;3.17;1.90;;;;;;;;;;5110904;28;20041;-68
2021/09/18 16:25:43;;;;;;;5.32;2.47;;;;;;;;;;5110435;28;20490;-68
2021/09/18 16:28:10;;;;;;;4.97;2.88;;;;;;;;;;5110794;28;20024;-67
2021/09/18 16:30:36;;;;;;;4.30;2.55;;;;;;;;;;5110806;28;20020;-67
2021/09/18 16:34:10;;;;;;;11.75;7.00;;;;;;;;;;5110858;27;20405;-67
2021/09/18 16:36:36;;;;;;;9.10;5.28;;;;;;;;;;5111885;28;20102;-67
2021/09/18 16:39:03;;;;;;;9.77;5.38;;;;;;;;;;5111225;28;20028;-67
2021/09/18 16:41:29;;;;;;;11.27;6.35;;;;;;;;;;5110821;28;20069;-67
2021/09/18 16:43:55;;;;;;;6.47;3.50;;;;;;;;;;5109872;28;20456;-67
2021/09/18 16:46:21;;;;;;;6.07;2.78;;;;;;;;;;5110895;28;20073;-66
2021/09/18 16:48:47;;;;;;;9.40;3.47;;;;;;;;;;5111138;28;20020;-67
2021/09/18 16:51:14;;;;;;;8.50;3.65;;;;;;;;;;5110903;28;20023;-67
2021/09/18 16:53:41;;;;;;;7.78;3.70;;;;;;;;;;5110529;28;20455;-67
2021/09/18 16:56:07;;;;;;;6.88;3.78;;;;;;;;;;5111458;28;20442;-67
2021/09/18 17:01:31;;;;;;;9.25;4.55;;;;;;;;;;5110914;27;20812;-67
2021/09/18 17:03:57;;;;;;;9.38;4.40;;;;;;;;;;5111271;28;20537;-68
2021/09/18 17:06:23;;;;;;;7.07;3.40;;;;;;;;;;5111176;28;20387;-68
2021/09/18 17:08:49;;;;;;;5.78;3.20;;;;;;;;;;5110783;28;20515;-67
2021/09/18 17:11:15;;;;;;;5.63;3.10;;;;;;;;;;5111069;28;20034;-68
2021/09/18 17:13:42;;;;;;;6.80;2.80;;;;;;;;;;5111181;28;20085;-67
2021/09/18 17:16:08;;;;;;;8.35;3.97;;;;;;;;;;5110650;28;20024;-68
2021/09/18 17:18:34;;;;;;;4.78;3.03;;;;;;;;;;5109619;28;20473;-68
2021/09/18 17:21:00;;;;;;;8.18;5.13;;;;;;;;;;5110785;28;20115;-67
2021/09/18 17:23:26;;;;;;;10.93;4.38;;;;;;;;;;5110576;28;20024;-68
2021/09/18 17:26:15;;;;;;;6.90;3.50;;;;;;;;;;5131945;27;20335;-67
2021/09/18 17:28:41;;;;;;;5.28;2.72;;;;;;;;;;5110843;28;20024;-68
2021/09/18 17:31:07;;;;;;;5.45;3.10;;;;;;;;;;5111378;28;20081;-68
2021/09/18 17:34:11;;;;;;;8.40;3.67;;;;;;;;;;5112145;27;20437;-69
2021/09/18 17:36:37;;;;;;;15.13;9.13;;;;;;;;;;5111015;28;20020;-67
2021/09/18 17:39:05;;;;;;;25.65;13.48;;;;;;;;;;5111311;28;20030;-67
2021/09/18 17:41:32;;;;;;;16.77;9.85;;;;;;;;;;5111264;28;20083;-67
2021/09/18 17:43:58;;;;;;;8.52;5.10;;;;;;;;;;5110802;28;20046;-68
2021/09/18 17:46:24;;;;;;;7.68;4.15;;;;;;;;;;5111104;28;20024;-67
2021/09/18 17:48:50;;;;;;;12.25;4.15;;;;;;;;;;5111406;28;20157;-67
2021/09/18 17:51:17;;;;;;;4.80;3.28;;;;;;;;;;5110568;28;20022;-68
2021/09/18 17:53:43;;;;;;;6.63;3.35;;;;;;;;;;5111020;28;20463;-68
2021/09/18 17:56:59;;;;;;;5.97;3.38;;;;;;;;;;5111071;27;20388;-67
2021/09/18 17:59:25;;;;;;;5.97;3.40;;;;;;;;;;5111234;28;20027;-67
2021/09/18 18:01:52;;;;;;;9.25;4.00;;;;;;;;;;5111177;28;20067;-67
2021/09/18 18:04:20;;;;;;;13.07;4.72;;;;;;;;;;5110981;28;20535;-67
2021/09/18 18:08:05;;;;;;;9.45;5.20;;;;;;;;;;5071194;28;20419;-67
2021/09/18 18:10:32;;;;;;;8.40;4.43;;;;;;;;;;5070747;28;20095;-67
2021/09/18 18:12:58;;;;;;;9.82;4.55;;;;;;;;;;5070914;28;20111;-67
2021/09/18 18:15:24;;;;;;;7.05;4.15;;;;;;;;;;5070637;28;20029;-67
2021/09/18 18:17:51;;;;;;;8.70;4.20;;;;;;;;;;5070219;28;20024;-68
2021/09/18 18:27:28;;;;;;;7.30;4.22;;;;;;;;;;5111731;27;20385;-68
2021/09/18 18:29:54;;;;;;;9.07;4.10;;;;;;;;;;5111265;28;20027;-68
2021/09/18 18:32:21;;;;;;;7.05;4.05;;;;;;;;;;5111016;28;20043;-67